Aérodrome :
LOGIN :

S'inscrire | Disclaimer

   EN    FR    IT 

 










Légende :    VFR   VFR Marginal   IFR   IFR Intensif   IFR Très Intensif
Visi : 
Plafond : 
>= 8 km
>= 3000ft
5 à 8 km
1000 à 3000 ft
1500m à 5 km
500 à 1000 ft
800 à 1500m
200 à 500 ft
< 800m
< 200 ft
Symboles :   Orages  Brouillard  Fortes neiges  Fortes précipitations  Vent > 20 kt
SIGMETs :   Divers  Orages  Givrage  Turbulence  Onde Orograph.  Cendres Volcan.






- Altitude de l'aérodrome : 3100 ft
- Code IATA : NAV


LTAZ - Kapadokya

DERNIER METAR :
  • 200820Z 26004KT 220V310 9999 SCT040 00/M06 Q1025 RMK RWY29 27005KT 240V310

METARs EXPIRÉS :
  • 200750Z VRB02KT 9999 SCT040 M01/M06 Q1025 RMK RWY29 30004KT 240V330
  • 200720Z 27003KT 240V300 9999 SCT040 M02/M05 Q1025 RMK RWY29 VRB02KT
  • 200650Z 00000KT 9999 FEW040 M03/M05 Q1025 RMK RWY29 VRB01KT
  • 200620Z 00000KT 9999 SCT040 M04/M06 Q1024 RMK RWY29 00000KT
  • 200550Z 21004KT 9999 SCT040 BKN100 M04/M06 Q1024 RMK RWY29 VRB01KT

TAF TAF LTAZ
Valide du 20 à 06h jusqu'au 21 à 06h UTC


200440Z 2006/2106 30007KT 9999 BKN030 BKN080
TEMPO 2006/2009 -SN
BECMG 2015/2018 2000 -SN BR SCT010 BKN025
BECMG 2021/2024 02015G25KT 8000



MET'MAP, la Météo Aéronautique d'un coup d'oeil ! - Copyright ORBIFLY Décembre 2007 - Disclaimer

ORBIFLY MET'MAP TEAM :

Programmation & Développement : Alexandra Zaïnal
Sur une idée originale de : Baudouin d'Aumeries
Assistance à la programmation : Marc-Olivier Méhu
Soutien technique & logistique : Manuel Goepfert

Contact : metmap@orbifly.com




SOURCES & CREDITS :

   NOAA